Time;durP1;ratioP1;P1;durP2;ratioP2;P2;SDS_P1;SDS_P2;PMS_P1;PMS_P2;Temp;Humidity;BMP_temperature;BMP_pressure;BME280_temperature;BME280_humidity;BME280_pressure;Samples;Min_cycle;Max_cycle;Signal;HPM_P1;HPM_P2
2021/07/24 00:00:09;;;;;;;;;;;22.80;61.90;;;;;;5021739;28;20429;-59
2021/07/24 00:02:35;;;;;;;;;;;22.80;61.80;;;;;;5020621;28;19971;-60
2021/07/24 00:05:00;;;;;;;;;;;22.90;61.90;;;;;;5021627;28;19917;-59
2021/07/24 00:07:26;;;;;;;;;;;22.80;61.80;;;;;;5020355;28;19948;-61
2021/07/24 00:09:51;;;;;;;;;;;22.80;61.80;;;;;;5019024;28;19913;-62
2021/07/24 00:12:16;;;;;;;;;;;22.80;61.80;;;;;;5020572;28;19913;-64
2021/07/24 00:14:42;;;;;;;;;;;22.90;61.90;;;;;;5020020;28;19987;-63
2021/07/24 00:17:07;;;;;;;;;;;22.80;61.90;;;;;;5018380;28;19929;-62
2021/07/24 00:19:33;;;;;;;;;;;22.90;61.90;;;;;;5022029;28;19917;-63
2021/07/24 00:21:58;;;;;;;;;;;22.80;61.80;;;;;;5024892;28;19964;-63
2021/07/24 00:24:24;;;;;;;;;;;22.80;61.90;;;;;;5024659;28;19939;-64
2021/07/24 00:26:49;;;;;;;;;;;22.90;61.90;;;;;;5024732;28;19941;-63
2021/07/24 00:29:14;;;;;;;;;;;22.90;61.80;;;;;;5023396;28;19921;-63
2021/07/24 00:31:41;;;;;;;;;;;22.90;61.80;;;;;;5024656;28;19924;-61
2021/07/24 00:34:06;;;;;;;;;;;22.90;61.90;;;;;;5023921;28;20366;-63
2021/07/24 00:36:32;;;;;;;;;;;22.90;61.80;;;;;;5025399;28;19928;-60
2021/07/24 00:38:57;;;;;;;;;;;22.90;61.80;;;;;;5023814;28;20259;-61
2021/07/24 00:41:36;;;;;;;;;;;22.90;61.80;;;;;;5025261;28;19914;-60
2021/07/24 00:44:02;;;;;;;;;;;22.90;62.50;;;;;;5024051;28;19917;-61
2021/07/24 00:46:29;;;;;;;;;;;22.90;61.80;;;;;;5023335;28;19921;-59
2021/07/24 00:48:54;;;;;;;;;;;22.80;61.80;;;;;;5024606;28;19924;-60
2021/07/24 00:51:28;;;;;;;;;;;22.80;61.70;;;;;;5023877;28;19913;-59
2021/07/24 00:53:54;;;;;;;;;;;22.80;61.80;;;;;;5024357;28;19917;-60
2021/07/24 00:56:20;;;;;;;;;;;22.80;61.70;;;;;;5024674;28;19913;-60
2021/07/24 00:58:45;;;;;;;;;;;22.80;61.80;;;;;;5023320;28;20275;-59
2021/07/24 01:01:10;;;;;;;;;;;22.80;61.70;;;;;;5024423;28;19983;-60
2021/07/24 01:03:36;;;;;;;;;;;22.80;61.60;;;;;;5025207;28;19917;-61
2021/07/24 01:06:01;;;;;;;;;;;22.80;61.60;;;;;;5024764;28;20366;-60
2021/07/24 01:08:28;;;;;;;;;;;22.80;61.50;;;;;;5024438;28;19979;-61
2021/07/24 01:10:53;;;;;;;;;;;22.80;61.60;;;;;;5022852;28;19923;-61
2021/07/24 01:13:19;;;;;;;;;;;22.80;61.50;;;;;;5022879;28;19917;-61
2021/07/24 01:15:44;;;;;;;;;;;22.80;61.40;;;;;;5024042;28;19921;-60
2021/07/24 01:18:10;;;;;;;;;;;22.80;61.40;;;;;;5022453;28;19933;-61
2021/07/24 01:20:35;;;;;;;;;;;22.80;61.30;;;;;;5025057;28;20024;-58
2021/07/24 01:23:01;;;;;;;;;;;22.80;61.30;;;;;;5021963;28;19971;-60
2021/07/24 01:25:26;;;;;;;;;;;22.80;61.30;;;;;;5023424;28;19928;-60
2021/07/24 01:27:52;;;;;;;;;;;22.80;61.30;;;;;;5023900;28;20533;-60
2021/07/24 01:30:17;;;;;;;;;;;22.80;61.20;;;;;;5023936;28;19924;-61
2021/07/24 01:32:43;;;;;;;;;;;22.80;61.20;;;;;;5024145;28;19913;-60
2021/07/24 01:35:08;;;;;;;;;;;22.80;61.30;;;;;;5023147;28;20333;-59
2021/07/24 01:37:34;;;;;;;;;;;22.80;61.20;;;;;;5023954;28;19928;-61
2021/07/24 01:39:59;;;;;;;;;;;22.80;61.20;;;;;;5023568;28;19927;-61
2021/07/24 01:42:24;;;;;;;;;;;22.80;61.20;;;;;;5022932;28;20054;-61
2021/07/24 01:44:50;;;;;;;;;;;22.80;61.20;;;;;;5024208;28;20401;-61
2021/07/24 01:47:15;;;;;;;;;;;22.80;61.20;;;;;;5023769;28;19917;-60
2021/07/24 01:52:48;;;;;;;;;;;22.70;61.10;;;;;;5023917;28;20044;-61
2021/07/24 01:55:32;;;;;;;;;;;22.80;61.10;;;;;;5022558;28;19955;-61
2021/07/24 01:57:57;;;;;;;;;;;22.70;61.00;;;;;;5023032;28;19921;-59
2021/07/24 02:00:23;;;;;;;;;;;22.80;61.10;;;;;;5004745;28;20278;-59
2021/07/24 02:02:49;;;;;;;;;;;22.80;61.00;;;;;;5023358;28;19953;-59
2021/07/24 02:05:17;;;;;;;;;;;22.70;60.90;;;;;;5023650;28;19917;-60
2021/07/24 02:07:43;;;;;;;;;;;22.70;60.90;;;;;;5021362;28;19960;-59
2021/07/24 02:10:09;;;;;;;;;;;22.70;60.90;;;;;;5037727;22;19913;-65
2021/07/24 02:12:34;;;;;;;;;;;22.70;60.90;;;;;;4998679;28;19925;-63
2021/07/24 02:15:00;;;;;;;;;;;22.70;60.90;;;;;;4982822;28;20426;-61
2021/07/24 02:17:26;;;;;;;;;;;22.70;60.90;;;;;;4982299;28;20287;-61
2021/07/24 02:19:51;;;;;;;;;;;22.70;60.80;;;;;;4980974;28;19914;-62
2021/07/24 02:22:17;;;;;;;;;;;22.70;60.70;;;;;;4981191;28;19918;-64
2021/07/24 02:24:43;;;;;;;;;;;22.70;60.80;;;;;;4983198;28;19919;-61
2021/07/24 02:27:08;;;;;;;;;;;22.70;60.70;;;;;;4983674;28;20339;-61
2021/07/24 02:29:34;;;;;;;;;;;22.70;60.70;;;;;;4983454;28;19976;-60
2021/07/24 02:31:59;;;;;;;;;;;22.70;60.60;;;;;;4983762;28;20455;-63
2021/07/24 02:34:25;;;;;;;;;;;22.70;60.60;;;;;;4983310;28;19914;-62
2021/07/24 02:36:50;;;;;;;;;;;22.70;60.60;;;;;;4983483;28;19980;-61
2021/07/24 02:39:16;;;;;;;;;;;22.70;60.60;;;;;;4981992;28;19922;-64
2021/07/24 02:41:41;;;;;;;;;;;22.70;60.60;;;;;;4982985;28;19965;-63
2021/07/24 02:44:06;;;;;;;;;;;22.70;60.50;;;;;;4984412;28;20383;-61
2021/07/24 02:46:32;;;;;;;;;;;22.70;60.50;;;;;;4984225;28;19922;-63
2021/07/24 02:48:57;;;;;;;;;;;22.60;60.50;;;;;;4983434;28;19925;-63
2021/07/24 02:51:23;;;;;;;;;;;22.60;60.30;;;;;;4983784;28;19924;-61
2021/07/24 02:53:48;;;;;;;;;;;22.70;60.50;;;;;;4983821;28;19918;-63
2021/07/24 02:56:14;;;;;;;;;;;22.70;61.00;;;;;;4984001;28;19938;-62
2021/07/24 02:58:39;;;;;;;;;;;22.60;60.40;;;;;;4983382;28;19918;-62
2021/07/24 03:01:06;;;;;;;;;;;22.70;60.50;;;;;;4981721;28;19941;-62
2021/07/24 03:03:31;;;;;;;;;;;22.70;60.40;;;;;;4984222;28;20448;-60
2021/07/24 03:05:56;;;;;;;;;;;22.60;60.40;;;;;;4983314;28;19914;-64
2021/07/24 03:08:22;;;;;;;;;;;22.60;60.40;;;;;;4982873;28;20375;-63
2021/07/24 03:10:47;;;;;;;;;;;22.60;60.30;;;;;;4983337;28;19925;-61
2021/07/24 03:13:13;;;;;;;;;;;22.60;60.40;;;;;;4982801;28;19921;-64
2021/07/24 03:15:38;;;;;;;;;;;22.60;60.30;;;;;;4983568;28;19913;-63
2021/07/24 03:18:04;;;;;;;;;;;22.60;60.30;;;;;;4980535;28;20567;-61
2021/07/24 03:20:29;;;;;;;;;;;22.60;60.20;;;;;;4982962;28;19940;-64
2021/07/24 03:22:55;;;;;;;;;;;22.60;60.20;;;;;;4982520;28;19968;-63
2021/07/24 03:25:21;;;;;;;;;;;22.60;60.20;;;;;;4980866;28;19920;-63
2021/07/24 03:27:46;;;;;;;;;;;22.60;60.20;;;;;;4982358;28;19918;-64
2021/07/24 03:30:12;;;;;;;;;;;22.60;60.20;;;;;;4982116;28;20449;-63
2021/07/24 03:32:37;;;;;;;;;;;22.60;60.20;;;;;;4983276;28;19914;-61
2021/07/24 03:35:03;;;;;;;;;;;22.60;60.30;;;;;;4982512;28;19993;-62
2021/07/24 03:37:28;;;;;;;;;;;22.60;60.30;;;;;;4983279;28;20331;-60
2021/07/24 03:39:54;;;;;;;;;;;22.60;60.20;;;;;;4993348;28;19968;-62
2021/07/24 03:42:19;;;;;;;;;;;22.60;60.30;;;;;;5001883;28;19925;-63
2021/07/24 03:44:44;;;;;;;;;;;22.60;60.30;;;;;;5002303;28;20450;-62
2021/07/24 03:47:10;;;;;;;;;;;22.60;60.30;;;;;;5002794;28;19921;-63
2021/07/24 03:49:35;;;;;;;;;;;22.60;60.30;;;;;;5002174;28;19913;-63
2021/07/24 03:52:01;;;;;;;;;;;22.60;60.40;;;;;;5002416;28;20322;-63
2021/07/24 03:54:27;;;;;;;;;;;22.60;60.40;;;;;;5001107;28;19920;-62
2021/07/24 03:56:52;;;;;;;;;;;22.60;60.50;;;;;;5002625;28;19914;-62
2021/07/24 03:59:17;;;;;;;;;;;22.60;60.60;;;;;;5001724;28;19926;-63
2021/07/24 04:01:43;;;;;;;;;;;22.50;60.50;;;;;;5000783;28;19917;-63
2021/07/24 04:04:08;;;;;;;;;;;22.50;60.50;;;;;;5002368;28;19914;-62
2021/07/24 04:06:34;;;;;;;;;;;22.60;60.70;;;;;;5001557;28;20305;-62
2021/07/24 04:09:00;;;;;;;;;;;22.60;60.60;;;;;;4999192;28;19921;-61
2021/07/24 04:11:26;;;;;;;;;;;22.50;60.60;;;;;;4998434;28;19932;-63
2021/07/24 04:13:52;;;;;;;;;;;22.60;60.70;;;;;;4999983;28;19944;-61
2021/07/24 04:16:17;;;;;;;;;;;22.50;60.70;;;;;;5012735;23;19926;-57
2021/07/24 04:18:42;;;;;;;;;;;22.60;60.80;;;;;;4995703;28;20600;-58
2021/07/24 04:21:08;;;;;;;;;;;22.60;60.80;;;;;;5000969;28;19963;-57
2021/07/24 04:23:33;;;;;;;;;;;22.50;60.80;;;;;;4998788;28;19924;-56
2021/07/24 04:25:59;;;;;;;;;;;22.60;60.90;;;;;;5000981;28;19929;-57
2021/07/24 04:28:24;;;;;;;;;;;22.50;60.80;;;;;;5000652;28;19924;-57
2021/07/24 04:30:50;;;;;;;;;;;22.60;60.90;;;;;;5000487;28;19918;-59
2021/07/24 04:33:15;;;;;;;;;;;22.60;61.10;;;;;;5001138;28;20359;-58
2021/07/24 04:35:47;;;;;;;;;;;22.60;61.10;;;;;;5001166;28;20294;-57
2021/07/24 04:38:15;;;;;;;;;;;22.60;61.20;;;;;;5000172;28;20011;-59
2021/07/24 04:40:41;;;;;;;;;;;22.50;61.20;;;;;;5001300;28;19977;-57
2021/07/24 04:43:06;;;;;;;;;;;22.60;61.30;;;;;;4998745;28;20683;-59
2021/07/24 04:45:32;;;;;;;;;;;22.50;61.30;;;;;;4986196;28;19921;-57
2021/07/24 04:47:57;;;;;;;;;;;22.50;61.40;;;;;;4981055;28;20382;-59
2021/07/24 04:50:23;;;;;;;;;;;22.50;62.10;;;;;;4982428;28;19918;-57
2021/07/24 04:52:48;;;;;;;;;;;22.60;61.60;;;;;;4980662;28;20001;-56
2021/07/24 04:55:14;;;;;;;;;;;22.60;61.60;;;;;;4982209;28;20318;-58
2021/07/24 04:57:39;;;;;;;;;;;22.50;61.70;;;;;;4979765;28;19917;-59
2021/07/24 05:00:06;;;;;;;;;;;22.60;61.90;;;;;;4980096;28;19922;-59
2021/07/24 05:02:31;;;;;;;;;;;22.60;61.90;;;;;;4980405;28;19969;-59
2021/07/24 05:04:57;;;;;;;;;;;22.60;62.10;;;;;;4981792;28;20762;-59
2021/07/24 05:07:22;;;;;;;;;;;22.50;62.10;;;;;;4984315;28;19925;-56
2021/07/24 05:09:47;;;;;;;;;;;22.50;62.20;;;;;;4984984;28;19920;-58
2021/07/24 05:12:13;;;;;;;;;;;22.50;62.30;;;;;;4983995;28;20351;-59
2021/07/24 05:14:38;;;;;;;;;;;22.50;62.40;;;;;;4985367;28;19940;-57
2021/07/24 05:17:05;;;;;;;;;;;22.50;62.40;;;;;;4983796;28;20016;-59
2021/07/24 05:19:31;;;;;;;;;;;22.50;62.50;;;;;;4984376;28;19922;-59
2021/07/24 05:21:56;;;;;;;;;;;22.50;62.40;;;;;;4984452;28;19957;-59
2021/07/24 05:24:22;;;;;;;;;;;22.60;62.80;;;;;;4985167;28;20755;-58
2021/07/24 05:26:47;;;;;;;;;;;22.50;62.60;;;;;;4984680;28;19921;-59
2021/07/24 05:29:12;;;;;;;;;;;22.50;62.70;;;;;;4984503;28;19917;-60
2021/07/24 05:31:38;;;;;;;;;;;22.60;62.50;;;;;;4984652;28;19914;-56
2021/07/24 05:34:04;;;;;;;;;;;22.50;62.40;;;;;;4984533;28;20415;-58
2021/07/24 05:36:30;;;;;;;;;;;22.50;62.30;;;;;;4984902;28;20008;-59
2021/07/24 05:38:55;;;;;;;;;;;22.60;62.40;;;;;;4984043;28;19976;-57
2021/07/24 05:41:21;;;;;;;;;;;22.50;62.30;;;;;;4983557;28;19942;-59
2021/07/24 05:43:46;;;;;;;;;;;22.50;62.20;;;;;;4984179;28;20441;-60
2021/07/24 05:46:12;;;;;;;;;;;22.60;62.40;;;;;;4984360;28;19917;-57
2021/07/24 05:48:37;;;;;;;;;;;22.50;62.90;;;;;;4984330;28;19917;-57
2021/07/24 05:51:06;;;;;;;;;;;22.60;62.20;;;;;;4987043;28;20652;-58
2021/07/24 05:53:32;;;;;;;;;;;22.60;62.20;;;;;;5004814;28;19944;-57
2021/07/24 05:55:58;;;;;;;;;;;22.60;62.20;;;;;;5001861;28;20398;-58
2021/07/24 05:58:24;;;;;;;;;;;22.50;62.20;;;;;;4984821;28;19921;-57
2021/07/24 06:00:49;;;;;;;;;;;22.50;62.20;;;;;;4984970;28;20004;-59
2021/07/24 06:03:15;;;;;;;;;;;22.50;62.20;;;;;;4985241;28;19917;-57
2021/07/24 06:05:40;;;;;;;;;;;22.50;62.20;;;;;;4985477;28;19917;-59
2021/07/24 06:08:06;;;;;;;;;;;22.50;62.20;;;;;;4982696;28;20553;-58
2021/07/24 06:10:31;;;;;;;;;;;22.50;62.20;;;;;;4984561;28;20008;-57
2021/07/24 06:12:57;;;;;;;;;;;22.50;62.20;;;;;;4985223;28;20379;-58
2021/07/24 06:15:23;;;;;;;;;;;22.50;62.20;;;;;;4984984;28;20306;-59
2021/07/24 06:17:48;;;;;;;;;;;22.60;62.30;;;;;;4984214;28;19925;-59
2021/07/24 06:20:14;;;;;;;;;;;22.50;62.20;;;;;;4985090;28;19920;-56
2021/07/24 06:22:39;;;;;;;;;;;22.50;62.30;;;;;;4985309;28;19923;-59
2021/07/24 06:25:05;;;;;;;;;;;22.50;62.30;;;;;;4984318;28;19922;-58
2021/07/24 06:27:30;;;;;;;;;;;22.50;62.40;;;;;;4984695;28;20212;-58
2021/07/24 06:29:56;;;;;;;;;;;22.50;62.40;;;;;;4982820;28;19921;-58
2021/07/24 06:32:21;;;;;;;;;;;22.50;62.50;;;;;;4984917;28;19914;-59
2021/07/24 06:34:47;;;;;;;;;;;22.50;62.50;;;;;;4984803;28;19918;-58
2021/07/24 06:37:12;;;;;;;;;;;22.50;62.40;;;;;;4984588;28;20000;-58
2021/07/24 06:39:38;;;;;;;;;;;22.50;62.50;;;;;;4984718;28;19925;-58
2021/07/24 06:42:03;;;;;;;;;;;22.50;62.50;;;;;;4984594;28;20375;-57
2021/07/24 06:44:29;;;;;;;;;;;22.50;62.50;;;;;;4982520;28;19926;-57
2021/07/24 06:46:55;;;;;;;;;;;22.50;62.50;;;;;;4983984;28;19925;-59
2021/07/24 06:49:21;;;;;;;;;;;22.50;62.60;;;;;;4981991;28;19924;-58
2021/07/24 06:51:46;;;;;;;;;;;22.50;62.60;;;;;;4983469;28;20375;-60
2021/07/24 06:54:12;;;;;;;;;;;22.50;62.60;;;;;;4984095;28;19925;-56
2021/07/24 06:56:37;;;;;;;;;;;22.50;62.70;;;;;;4984507;28;19914;-60
2021/07/24 06:59:03;;;;;;;;;;;22.50;62.60;;;;;;4983637;28;19929;-60
2021/07/24 07:01:28;;;;;;;;;;;22.50;62.80;;;;;;4983863;28;19918;-59
2021/07/24 07:03:54;;;;;;;;;;;22.50;62.80;;;;;;4984041;28;19967;-57
2021/07/24 07:06:19;;;;;;;;;;;22.50;62.70;;;;;;4984071;28;19921;-58
2021/07/24 07:08:45;;;;;;;;;;;22.50;62.70;;;;;;4983512;28;19914;-58
2021/07/24 07:11:10;;;;;;;;;;;22.50;62.90;;;;;;4984321;28;20298;-59
2021/07/24 07:13:35;;;;;;;;;;;22.50;62.90;;;;;;4984081;28;20293;-57
2021/07/24 07:16:07;;;;;;;;;;;22.50;62.90;;;;;;4983474;28;19965;-57
2021/07/24 07:18:35;;;;;;;;;;;22.50;62.90;;;;;;4983564;28;19930;-59
2021/07/24 07:21:01;;;;;;;;;;;22.50;62.90;;;;;;4983847;28;19914;-58
2021/07/24 07:23:26;;;;;;;;;;;22.50;62.90;;;;;;4983523;28;20398;-58
2021/07/24 07:25:52;;;;;;;;;;;22.50;62.90;;;;;;4983761;28;20250;-57
2021/07/24 07:28:18;;;;;;;;;;;22.50;62.90;;;;;;4983057;28;20105;-57
2021/07/24 07:30:43;;;;;;;;;;;22.50;63.00;;;;;;4982250;28;20334;-56
2021/07/24 07:33:08;;;;;;;;;;;22.50;63.00;;;;;;4984189;28;19980;-58
2021/07/24 07:35:34;;;;;;;;;;;22.50;63.00;;;;;;4983454;28;19917;-56
2021/07/24 07:37:59;;;;;;;;;;;22.50;63.00;;;;;;4982955;28;19922;-56
2021/07/24 07:40:25;;;;;;;;;;;22.50;63.00;;;;;;4982795;28;20397;-58
2021/07/24 07:42:50;;;;;;;;;;;22.40;63.00;;;;;;4983813;28;19914;-53
2021/07/24 07:45:16;;;;;;;;;;;22.50;63.00;;;;;;4983290;28;20399;-57
2021/07/24 07:47:41;;;;;;;;;;;22.50;63.10;;;;;;4984087;28;19922;-59
2021/07/24 07:50:07;;;;;;;;;;;22.50;63.10;;;;;;4983593;28;20654;-57
2021/07/24 07:52:32;;;;;;;;;;;22.50;63.20;;;;;;4984155;28;19913;-58
2021/07/24 07:54:58;;;;;;;;;;;22.50;63.10;;;;;;4982090;28;19914;-59
2021/07/24 07:57:25;;;;;;;;;;;22.50;63.30;;;;;;4983402;28;20040;-58
2021/07/24 07:59:50;;;;;;;;;;;22.50;63.20;;;;;;4982932;28;19922;-57
2021/07/24 08:02:16;;;;;;;;;;;22.50;63.20;;;;;;4983269;28;19965;-59
2021/07/24 08:04:41;;;;;;;;;;;22.40;63.20;;;;;;4982264;28;20382;-58
2021/07/24 08:07:07;;;;;;;;;;;22.50;63.30;;;;;;4982751;28;20377;-58
2021/07/24 08:09:32;;;;;;;;;;;22.50;63.30;;;;;;4982340;28;19925;-58
2021/07/24 08:11:58;;;;;;;;;;;22.50;63.40;;;;;;4983000;28;19918;-57
2021/07/24 08:14:23;;;;;;;;;;;22.50;63.50;;;;;;4982838;28;20386;-57
2021/07/24 08:16:48;;;;;;;;;;;22.50;63.40;;;;;;4981843;28;19960;-59
2021/07/24 08:19:14;;;;;;;;;;;22.50;63.50;;;;;;4982295;28;19980;-57
2021/07/24 08:21:39;;;;;;;;;;;22.50;63.40;;;;;;4981704;28;19918;-56
2021/07/24 08:24:05;;;;;;;;;;;22.40;63.30;;;;;;4983053;28;20006;-60
2021/07/24 08:26:30;;;;;;;;;;;22.40;63.40;;;;;;4983156;28;19914;-56
2021/07/24 08:28:56;;;;;;;;;;;22.50;63.60;;;;;;4981068;28;19925;-59
2021/07/24 08:31:21;;;;;;;;;;;22.40;63.50;;;;;;4982858;28;19918;-57
2021/07/24 08:33:47;;;;;;;;;;;22.50;63.50;;;;;;4982080;28;20298;-59
2021/07/24 08:36:12;;;;;;;;;;;22.50;63.50;;;;;;4983104;28;19914;-59
2021/07/24 08:38:38;;;;;;;;;;;22.40;63.40;;;;;;4982301;28;19926;-58
2021/07/24 08:41:03;;;;;;;;;;;22.50;63.60;;;;;;4985380;28;20311;-55
2021/07/24 08:43:28;;;;;;;;;;;22.40;63.70;;;;;;4986507;28;19913;-57
2021/07/24 08:45:57;;;;;;;;;;;22.50;63.80;;;;;;4986442;28;19953;-59
2021/07/24 08:48:22;;;;;;;;;;;22.50;63.90;;;;;;4986131;28;19918;-57
2021/07/24 08:50:48;;;;;;;;;;;22.50;64.00;;;;;;4986379;28;20295;-59
2021/07/24 08:53:14;;;;;;;;;;;22.50;64.00;;;;;;4985057;28;19980;-57
2021/07/24 08:55:41;;;;;;;;;;;22.50;64.00;;;;;;4986718;28;19988;-57
2021/07/24 08:58:10;;;;;;;;;;;22.50;63.80;;;;;;4986083;28;19972;-56
2021/07/24 09:00:35;;;;;;;;;;;22.50;63.80;;;;;;4986362;28;19961;-57
2021/07/24 09:03:01;;;;;;;;;;;22.50;63.60;;;;;;4986398;28;20082;-58
2021/07/24 09:05:26;;;;;;;;;;;22.50;63.80;;;;;;4986026;28;20531;-57
2021/07/24 09:07:51;;;;;;;;;;;22.50;63.80;;;;;;4984177;28;20667;-59
2021/07/24 09:10:18;;;;;;;;;;;22.50;63.80;;;;;;4986231;28;19918;-59
2021/07/24 09:12:43;;;;;;;;;;;22.50;63.80;;;;;;4986235;28;19917;-59
2021/07/24 09:15:10;;;;;;;;;;;22.50;63.80;;;;;;4986374;28;20299;-59
2021/07/24 09:17:35;;;;;;;;;;;22.50;63.80;;;;;;4984067;28;19944;-59
2021/07/24 09:20:01;;;;;;;;;;;22.50;63.70;;;;;;4984425;28;20349;-58
2021/07/24 09:22:30;;;;;;;;;;;22.50;63.50;;;;;;4986103;28;19940;-59
2021/07/24 09:25:06;;;;;;;;;;;22.50;63.50;;;;;;4984654;28;19913;-57
2021/07/24 09:27:32;;;;;;;;;;;22.50;63.50;;;;;;4986011;28;19972;-61
2021/07/24 09:29:57;;;;;;;;;;;22.50;63.50;;;;;;4985690;28;20358;-56
2021/07/24 09:32:22;;;;;;;;;;;22.60;63.50;;;;;;4985878;28;20333;-56
2021/07/24 09:34:48;;;;;;;;;;;22.50;63.30;;;;;;4985392;28;19921;-58
2021/07/24 09:37:24;;;;;;;;;;;22.50;63.10;;;;;;4985556;28;19917;-58
2021/07/24 09:39:49;;;;;;;;;;;22.50;63.00;;;;;;4985263;28;19929;-57
2021/07/24 09:42:15;;;;;;;;;;;22.50;63.00;;;;;;4984472;28;19914;-57
2021/07/24 09:44:40;;;;;;;;;;;22.60;62.90;;;;;;4985949;28;20598;-58
2021/07/24 09:47:08;;;;;;;;;;;22.50;62.70;;;;;;4985882;28;19924;-54
2021/07/24 09:49:37;;;;;;;;;;;22.60;62.80;;;;;;4985586;28;19921;-57
2021/07/24 09:52:11;;;;;;;;;;;22.50;62.70;;;;;;4985465;28;19922;-55
2021/07/24 09:54:37;;;;;;;;;;;22.60;62.60;;;;;;4993305;28;19914;-59
2021/07/24 09:57:03;;;;;;;;;;;22.60;62.50;;;;;;5001669;28;20639;-55
2021/07/24 09:59:28;;;;;;;;;;;22.50;62.30;;;;;;4973215;28;19925;-57
2021/07/24 10:01:54;;;;;;;;;;;22.60;62.10;;;;;;5002984;28;19914;-57
2021/07/24 10:04:27;;;;;;;;;;;22.60;62.40;;;;;;4988496;28;19953;-56
2021/07/24 10:06:59;;;;;;;;;;;22.60;62.30;;;;;;4985069;28;19918;-55
2021/07/24 10:09:29;;;;;;;;;;;22.60;62.20;;;;;;4990627;28;19923;-55
2021/07/24 10:11:57;;;;;;;;;;;22.60;62.20;;;;;;5005306;28;20456;-57
2021/07/24 10:14:23;;;;;;;;;;;22.50;62.10;;;;;;4992206;28;19917;-56
2021/07/24 10:16:49;;;;;;;;;;;22.60;62.20;;;;;;5015630;23;19917;-60
2021/07/24 10:19:14;;;;;;;;;;;22.60;62.10;;;;;;4987541;28;19921;-60
2021/07/24 10:21:40;;;;;;;;;;;22.60;62.10;;;;;;4978791;28;19964;-60
2021/07/24 10:24:05;;;;;;;;;;;22.60;61.80;;;;;;4980518;28;19925;-59
2021/07/24 10:26:32;;;;;;;;;;;22.60;61.90;;;;;;4979915;28;19918;-60
2021/07/24 10:28:57;;;;;;;;;;;22.60;61.60;;;;;;4979486;28;19928;-60
2021/07/24 10:31:26;;;;;;;;;;;22.60;61.90;;;;;;4979948;28;19917;-58
2021/07/24 10:33:59;;;;;;;;;;;22.60;61.70;;;;;;4981856;28;20001;-60
2021/07/24 10:36:38;;;;;;;;;;;22.60;61.90;;;;;;4980433;28;19913;-59
2021/07/24 10:39:04;;;;;;;;;;;22.60;61.30;;;;;;4982005;28;20379;-58
2021/07/24 10:41:29;;;;;;;;;;;22.60;61.40;;;;;;4981937;28;19913;-61
2021/07/24 10:43:55;;;;;;;;;;;22.60;61.50;;;;;;4982309;28;19965;-59
2021/07/24 10:46:21;;;;;;;;;;;22.60;61.50;;;;;;4981594;28;19981;-59
2021/07/24 10:48:46;;;;;;;;;;;22.60;61.60;;;;;;4982202;28;19979;-61
2021/07/24 10:51:15;;;;;;;;;;;22.60;61.40;;;;;;4982844;28;19976;-60
2021/07/24 10:54:02;;;;;;;;;;;22.60;61.10;;;;;;4981683;28;20378;-61
2021/07/24 10:56:38;;;;;;;;;;;22.60;61.00;;;;;;4980699;28;19922;-59
2021/07/24 10:59:22;;;;;;;;;;;22.60;61.20;;;;;;4982501;28;19921;-61
2021/07/24 11:01:47;;;;;;;;;;;22.60;60.70;;;;;;4981507;28;20303;-59
2021/07/24 11:04:37;;;;;;;;;;;22.60;61.30;;;;;;4979919;28;19924;-59
2021/07/24 11:07:12;;;;;;;;;;;22.60;61.10;;;;;;4982784;28;19914;-60
2021/07/24 11:09:37;;;;;;;;;;;22.60;60.80;;;;;;4981693;28;19922;-60
2021/07/24 11:12:05;;;;;;;;;;;22.60;61.00;;;;;;4981912;28;19913;-61
2021/07/24 11:14:34;;;;;;;;;;;22.60;60.60;;;;;;4981673;28;19917;-61
2021/07/24 11:17:05;;;;;;;;;;;22.60;61.10;;;;;;4982042;28;20338;-59
2021/07/24 11:19:51;;;;;;;;;;;22.60;61.10;;;;;;4980702;28;19929;-59
2021/07/24 11:22:17;;;;;;;;;;;22.60;60.90;;;;;;4960390;28;20023;-59
2021/07/24 11:24:43;;;;;;;;;;;22.60;61.20;;;;;;4981818;28;19914;-60
2021/07/24 11:27:08;;;;;;;;;;;22.60;61.10;;;;;;4982274;28;19917;-61
2021/07/24 11:29:34;;;;;;;;;;;22.60;61.10;;;;;;4982195;28;19921;-60
2021/07/24 11:32:02;;;;;;;;;;;22.70;61.10;;;;;;4981043;28;20306;-60
2021/07/24 11:34:29;;;;;;;;;;;22.70;61.10;;;;;;4980782;28;19932;-61
2021/07/24 11:36:54;;;;;;;;;;;22.70;61.20;;;;;;4980199;28;19948;-59
2021/07/24 11:39:23;;;;;;;;;;;22.70;61.20;;;;;;4978781;28;20383;-60
2021/07/24 11:41:49;;;;;;;;;;;22.70;61.30;;;;;;4981073;28;19918;-59
2021/07/24 11:44:30;;;;;;;;;;;22.70;61.20;;;;;;4980109;28;20391;-60
2021/07/24 11:47:05;;;;;;;;;;;22.70;61.20;;;;;;4980807;28;19937;-59
2021/07/24 11:49:31;;;;;;;;;;;22.70;61.60;;;;;;4980935;28;19921;-59
2021/07/24 11:51:56;;;;;;;;;;;22.80;61.30;;;;;;4981740;28;19914;-58
2021/07/24 11:54:28;;;;;;;;;;;22.80;61.20;;;;;;4981536;28;19918;-60
2021/07/24 11:56:54;;;;;;;;;;;22.80;61.30;;;;;;4980924;28;19921;-60
2021/07/24 11:59:19;;;;;;;;;;;22.70;60.70;;;;;;4981457;28;19922;-59
2021/07/24 12:01:45;;;;;;;;;;;22.80;61.20;;;;;;4981570;28;19925;-61
2021/07/24 12:04:12;;;;;;;;;;;22.70;61.10;;;;;;4981719;28;20286;-59
2021/07/24 12:06:38;;;;;;;;;;;22.80;61.20;;;;;;4982191;28;20626;-60
2021/07/24 12:09:03;;;;;;;;;;;22.80;61.20;;;;;;4980297;28;19920;-60
2021/07/24 12:11:29;;;;;;;;;;;22.80;61.20;;;;;;4964148;28;19918;-59
2021/07/24 12:14:04;;;;;;;;;;;22.80;61.10;;;;;;4983132;28;19918;-60
2021/07/24 12:16:36;;;;;;;;;;;22.80;61.00;;;;;;4985553;28;19918;-59
2021/07/24 12:19:09;;;;;;;;;;;22.90;61.10;;;;;;4985464;28;20476;-59
2021/07/24 12:21:34;;;;;;;;;;;22.80;60.50;;;;;;4985720;28;21846;-60
2021/07/24 12:24:03;;;;;;;;;;;22.90;60.80;;;;;;4985670;28;19921;-60
2021/07/24 12:26:31;;;;;;;;;;;22.90;60.50;;;;;;4985778;28;19976;-59
2021/07/24 12:28:57;;;;;;;;;;;22.90;60.70;;;;;;4985385;28;19914;-59
2021/07/24 12:31:31;;;;;;;;;;;22.90;60.40;;;;;;4986114;28;19918;-59
2021/07/24 12:34:00;;;;;;;;;;;22.90;60.30;;;;;;4982910;28;19922;-59
2021/07/24 12:36:26;;;;;;;;;;;22.90;60.90;;;;;;4985465;28;19941;-60
2021/07/24 12:38:52;;;;;;;;;;;22.90;60.80;;;;;;4983221;28;20349;-60
2021/07/24 12:41:26;;;;;;;;;;;22.90;59.90;;;;;;4984717;28;19923;-61
2021/07/24 12:44:07;;;;;;;;;;;22.90;60.30;;;;;;4985369;28;19922;-60
2021/07/24 12:46:33;;;;;;;;;;;22.90;60.00;;;;;;4985710;28;20012;-60
2021/07/24 12:48:59;;;;;;;;;;;23.00;59.70;;;;;;4985272;28;20033;-59
2021/07/24 12:51:25;;;;;;;;;;;23.00;59.60;;;;;;4984993;28;19913;-58
2021/07/24 12:53:52;;;;;;;;;;;23.00;59.60;;;;;;4985333;28;19981;-61
2021/07/24 12:56:18;;;;;;;;;;;23.00;59.70;;;;;;4983404;28;20391;-58
2021/07/24 12:58:43;;;;;;;;;;;23.00;59.80;;;;;;4982834;28;19926;-60
2021/07/24 13:01:09;;;;;;;;;;;23.00;59.50;;;;;;4984940;28;19960;-59
2021/07/24 13:03:35;;;;;;;;;;;23.00;59.50;;;;;;4985717;28;19918;-59
2021/07/24 13:06:00;;;;;;;;;;;23.00;59.70;;;;;;4984891;28;20723;-60
2021/07/24 13:08:26;;;;;;;;;;;23.00;59.70;;;;;;4984427;28;19918;-61
2021/07/24 13:10:52;;;;;;;;;;;23.00;59.40;;;;;;4983215;28;19914;-61
2021/07/24 13:13:17;;;;;;;;;;;23.10;59.80;;;;;;4984222;28;19918;-59
2021/07/24 13:15:43;;;;;;;;;;;23.10;59.40;;;;;;4984887;28;19917;-59
2021/07/24 13:18:08;;;;;;;;;;;23.10;59.60;;;;;;4984412;28;20318;-59
2021/07/24 13:20:34;;;;;;;;;;;23.10;59.50;;;;;;4982719;28;20587;-58
2021/07/24 13:22:59;;;;;;;;;;;23.10;59.50;;;;;;4984270;28;19914;-58
2021/07/24 13:28:14;;;;;;;;;;;23.10;59.70;;;;;;4982173;28;19973;-60
2021/07/24 13:30:49;;;;;;;;;;;23.10;59.50;;;;;;4982446;28;20004;-59
2021/07/24 13:33:15;;;;;;;;;;;23.10;59.50;;;;;;4984766;28;19973;-60
2021/07/24 13:35:44;;;;;;;;;;;23.10;59.60;;;;;;4984373;28;19957;-60
2021/07/24 13:38:09;;;;;;;;;;;23.10;60.30;;;;;;4984107;28;19918;-60
2021/07/24 13:40:35;;;;;;;;;;;23.10;59.60;;;;;;4984354;28;20163;-61
2021/07/24 13:43:01;;;;;;;;;;;23.10;59.80;;;;;;4984508;28;19928;-59
2021/07/24 13:45:27;;;;;;;;;;;23.10;59.70;;;;;;4982902;28;19914;-60
2021/07/24 13:47:53;;;;;;;;;;;23.10;59.70;;;;;;4983744;28;20383;-61
2021/07/24 13:50:18;;;;;;;;;;;23.20;59.70;;;;;;4981464;28;19921;-59
2021/07/24 13:52:44;;;;;;;;;;;23.10;59.70;;;;;;4983228;28;19926;-59
2021/07/24 13:55:09;;;;;;;;;;;23.10;59.60;;;;;;4983929;28;19925;-58
2021/07/24 13:57:36;;;;;;;;;;;23.10;59.60;;;;;;4983677;28;20394;-61
2021/07/24 14:00:01;;;;;;;;;;;23.20;59.80;;;;;;4983377;28;19914;-61
2021/07/24 14:02:27;;;;;;;;;;;23.20;59.70;;;;;;4983851;28;19917;-59
2021/07/24 14:04:52;;;;;;;;;;;23.20;59.80;;;;;;4982692;28;20379;-60
2021/07/24 14:07:18;;;;;;;;;;;23.20;59.70;;;;;;4982531;28;19925;-61
2021/07/24 14:09:43;;;;;;;;;;;23.20;59.90;;;;;;4982620;28;19918;-59
2021/07/24 14:12:08;;;;;;;;;;;23.20;59.80;;;;;;4983966;28;19914;-61
2021/07/24 14:14:34;;;;;;;;;;;23.20;59.90;;;;;;4983552;28;20367;-62
2021/07/24 14:16:59;;;;;;;;;;;23.20;59.70;;;;;;4983386;28;19928;-58